Appleton City, MO (64724)

9:34 PM CDT on August 29, 2015 (GMT -0500)
BATES CO EMA | | Change Station
CLOSE
Current Station
Personal Weather Station
Location: Butler, MO
Elevation: 869 ft
Nearby Weather Stations

Elev 869 ft 38.26 °N, 94.33 °W | Updated 4 minutes ago

Mostly Cloudy
Mostly Cloudy
73.0 °F
Feels Like 72 °F
N
0.0
Wind Variable Wind from North
Gusts 0.0 mph

Today
High -- | Low -- °F
--% Chance of Precip.
Yesterday
High -- | Low -- °F
Precip. -- in
6:42 AM 7:50 PM
Full, 100% visible
Pressure 30.01 in
Visibility 5.0 miles
Clouds
Heat Index 72 °F
Dew Point 68 °F
Humidity 84%
Rainfall 0.00 in
Snow Depth Not available.
UV Not available.
Pollen 9.60 out of 12
Air Quality Not available.
Flu Activity Not available.
METAR KGLY 300215Z AUTO 00000KT 5SM BR 21/21 A3001 RMK AO2
Pressure 30.01 in
Visibility 5.0 miles
Clouds
Heat Index 72 °F
Dew Point 68 °F
Humidity 84%
Rainfall 0.00 in
Snow Depth Not available.
UV Not available.
Pollen 9.60 out of 12
Air Quality Not available.
Flu Activity Not available.
METAR KGLY 300215Z AUTO 00000KT 5SM BR 21/21 A3001 RMK AO2

10-Day Weather Forecast

×

Almanac

Astronomy

Aug. 29, 2015 Rise Set
Actual Time
Civil Twilight
Nautical Twilight
Astronomical Twilight
Moon
Length of Visible Light
Length of Day
Tomorrow will be .
, % of the Moon is Illuminated

Today's Extremes

State Highs State Lows

Community

WunderPhotos

Upload Photos

1,850,852 photos uploaded!

WunderBlogs® & News

Nearby

Air Quality

  Air Quality AQ Index Pollutant
Not available.

Snow Depth

Station Depth Elevation

Earthquake Activity

City Distance Mag. Time & Date
Minimum magnitude displayed is 2.5.

Coastal Water Temperatures

Place Temperature

Stations

Nearby Weather Stations

Station Location Temp. Windchill Dew Point Humidity Wind Precip. Elev Updated Type